Morgan Mill, Texas
Current Conditions -  °F | °C
As of 4:35 AM on Friday 24 Oct 2014 (Local Time) from KSEP Reporting Station
Clear Clear  
Wind Chill: 60°   Ceiling: Unl
Heat Index: 60°   Visibility: 10mi
Dew Point: 55°   Wind: 3mph
Humidity: 85%   Direction: 170°S
Pressure: 30.14"   Gusts: NA
Location:  32.39°N, 98.17°W
Report Text: KSEP 240935Z AUTO 17003KT 10SM CLR 16/13 A3014 RMK AO2 T01550130
Loading
Personal Weather Stations






























Interactive Weather Map
Tropical Storm Tracking
New forecast layout! Learn more

10-Day Weather Forecast

Advertisements
Track Severe Weather on mobile